createdAt,value
2023-02-08T00:07:23.412Z,-3.51
2023-02-08T00:17:23.254Z,-3.33
2023-02-08T00:27:23.315Z,-3.26
2023-02-08T00:37:22.973Z,-2.92
2023-02-08T00:47:22.916Z,-2.67
2023-02-08T00:57:22.767Z,-2.57
2023-02-08T01:07:22.683Z,-2.52
2023-02-08T01:17:22.620Z,-2.40
2023-02-08T01:27:22.876Z,-2.42
2023-02-08T01:37:22.439Z,-2.35
2023-02-08T01:47:22.407Z,-2.19
2023-02-08T01:57:22.372Z,-2.18
2023-02-08T02:07:22.362Z,-2.21
2023-02-08T02:17:23.779Z,-2.04
2023-02-08T02:27:22.625Z,-2.04
2023-02-08T02:37:22.360Z,-1.92
2023-02-08T02:47:22.587Z,-1.76
2023-02-08T02:57:22.410Z,-1.71
2023-02-08T03:07:22.390Z,-1.51
2023-02-08T03:17:22.479Z,-1.51
2023-02-08T03:27:22.323Z,-1.45
2023-02-08T03:37:22.312Z,-1.34
2023-02-08T03:47:22.492Z,-1.24
2023-02-08T03:57:22.302Z,-1.24
2023-02-08T04:07:22.292Z,-1.24
2023-02-08T04:17:22.281Z,-1.25
2023-02-08T04:27:22.239Z,-1.09
2023-02-08T04:37:22.238Z,-1.11
2023-02-08T04:47:22.239Z,-1.22
2023-02-08T04:57:22.263Z,-1.05
2023-02-08T05:07:22.305Z,-0.99
2023-02-08T05:17:22.387Z,-1.07
2023-02-08T05:27:22.721Z,-1.21
2023-02-08T05:37:22.449Z,-1.13
2023-02-08T05:47:25.133Z,-1.30
2023-02-08T05:57:22.475Z,-1.39
2023-02-08T06:07:22.552Z,-1.37
2023-02-08T06:17:22.505Z,-1.26
2023-02-08T06:27:22.536Z,-1.49
2023-02-08T06:37:22.467Z,-1.45
2023-02-08T06:47:22.492Z,-1.34
2023-02-08T06:57:22.772Z,-1.39
2023-02-08T07:07:22.484Z,-1.31
2023-02-08T07:17:22.507Z,-1.11
2023-02-08T07:27:24.481Z,-1.03
2023-02-08T07:37:22.567Z,-1.02
2023-02-08T07:47:22.573Z,-0.69
2023-02-08T07:57:22.611Z,-0.04
2023-02-08T08:07:22.688Z,0.73
2023-02-08T08:17:22.876Z,1.66
2023-02-08T08:27:23.202Z,2.24
2023-02-08T08:37:23.722Z,2.91
2023-02-08T08:47:23.951Z,3.72
2023-02-08T08:57:24.574Z,3.51
2023-02-08T09:07:25.150Z,3.83
2023-02-08T09:17:25.377Z,5.13
2023-02-08T09:27:26.010Z,4.87
2023-02-08T09:37:26.460Z,5.23
2023-02-08T09:47:27.187Z,6.26
2023-02-08T09:57:27.591Z,5.10
2023-02-08T10:07:28.357Z,4.81
2023-02-08T10:17:28.589Z,4.80
2023-02-08T10:27:29.091Z,5.48
2023-02-08T10:37:29.482Z,3.86
2023-02-08T10:47:29.844Z,4.12
2023-02-08T10:57:30.148Z,4.44
2023-02-08T11:07:30.399Z,3.45
2023-02-08T11:17:30.909Z,4.16
2023-02-08T11:27:31.099Z,4.15
2023-02-08T11:37:31.517Z,3.71
2023-02-08T11:47:31.765Z,3.64
2023-02-08T11:57:32.021Z,3.88
2023-02-08T12:07:32.551Z,3.97
2023-02-08T12:17:32.641Z,3.35
2023-02-08T12:27:32.918Z,3.12
2023-02-08T12:37:33.129Z,3.20
2023-02-08T12:47:33.428Z,3.35
2023-02-08T12:57:33.712Z,3.21
2023-02-08T13:07:34.011Z,3.33
2023-02-08T13:17:34.288Z,3.69
2023-02-08T13:27:34.553Z,3.63
2023-02-08T13:37:35.091Z,3.71
2023-02-08T13:47:35.386Z,3.31
2023-02-08T13:57:35.464Z,3.34
2023-02-08T14:07:35.796Z,3.15
2023-02-08T14:17:36.115Z,3.27
2023-02-08T14:27:36.375Z,3.21
2023-02-08T14:37:36.789Z,3.28
2023-02-08T14:47:37.006Z,3.15
2023-02-08T14:57:37.663Z,3.15
2023-02-08T15:07:37.617Z,3.17
2023-02-08T15:17:37.924Z,3.11
2023-02-08T15:27:38.474Z,2.93
2023-02-08T15:37:39.473Z,2.67
2023-02-08T15:47:38.751Z,2.52
2023-02-08T15:57:39.030Z,2.50
2023-02-08T16:07:39.346Z,2.28
2023-02-08T16:17:39.662Z,1.96
2023-02-08T16:27:39.864Z,1.96
2023-02-08T16:37:39.973Z,1.69
2023-02-08T16:47:40.178Z,1.74
2023-02-08T16:57:40.686Z,1.50
2023-02-08T17:07:40.772Z,1.42
2023-02-08T17:17:41.153Z,0.87
2023-02-08T17:27:41.006Z,0.79
2023-02-08T17:37:41.310Z,0.75
2023-02-08T17:47:41.262Z,0.53
2023-02-08T17:57:42.871Z,0.47
2023-02-08T18:07:41.525Z,0.41
2023-02-08T18:17:41.579Z,0.24
2023-02-08T18:27:41.801Z,0.16
2023-02-08T18:37:41.834Z,-0.07
2023-02-08T18:47:41.859Z,-0.07
2023-02-08T18:57:41.806Z,-0.04
2023-02-08T19:07:41.916Z,-0.09
2023-02-08T19:17:41.848Z,-0.02
2023-02-08T19:27:41.985Z,-0.02
2023-02-08T19:37:43.365Z,-0.20
2023-02-08T19:47:51.111Z,-0.25
2023-02-08T19:57:41.824Z,-0.23
2023-02-08T20:07:43.201Z,-0.23
2023-02-08T20:17:42.195Z,-0.36
2023-02-08T20:27:42.297Z,-0.61
2023-02-08T20:37:42.390Z,-0.67
2023-02-08T20:47:46.717Z,-0.66
2023-02-08T20:57:43.454Z,-0.72
2023-02-08T21:07:42.311Z,-1.03
2023-02-08T21:17:42.219Z,-1.00
2023-02-08T21:27:42.517Z,-1.28
2023-02-08T21:37:42.246Z,-1.28
2023-02-08T21:47:42.333Z,-1.27
2023-02-08T22:07:42.315Z,-1.22
2023-02-08T22:17:42.277Z,-1.41
2023-02-08T22:27:42.304Z,-1.43
2023-02-08T22:37:42.321Z,-1.72
2023-02-08T22:47:42.300Z,-1.38
2023-02-08T22:57:42.316Z,-1.64
2023-02-08T23:07:42.283Z,-1.77
2023-02-08T23:17:42.202Z,-1.73
2023-02-08T23:27:42.163Z,-1.82
2023-02-08T23:37:42.093Z,-1.83
2023-02-08T23:47:42.117Z,-2.05
2023-02-08T23:57:42.063Z,-2.21
